sensor_id;sensor_type;location;lat;lon;timestamp;P1;durP1;ratioP1;P2;durP2;ratioP2
17488;SDS011;8861;52.644;4.734;2023-09-07T00:00:02;8.23;;;7.03;;
17488;SDS011;8861;52.644;4.734;2023-09-07T00:02:31;7.20;;;6.50;;
17488;SDS011;8861;52.644;4.734;2023-09-07T00:04:58;8.20;;;6.70;;
17488;SDS011;8861;52.644;4.734;2023-09-07T00:07:25;7.43;;;6.73;;
17488;SDS011;8861;52.644;4.734;2023-09-07T00:09:53;7.40;;;6.70;;
17488;SDS011;8861;52.644;4.734;2023-09-07T00:12:20;7.67;;;6.87;;
17488;SDS011;8861;52.644;4.734;2023-09-07T00:14:47;7.17;;;6.47;;
17488;SDS011;8861;52.644;4.734;2023-09-07T00:17:14;9.40;;;6.83;;
17488;SDS011;8861;52.644;4.734;2023-09-07T00:19:41;8.00;;;7.20;;
17488;SDS011;8861;52.644;4.734;2023-09-07T00:22:08;7.67;;;6.97;;
17488;SDS011;8861;52.644;4.734;2023-09-07T00:24:35;7.50;;;6.80;;
17488;SDS011;8861;52.644;4.734;2023-09-07T00:27:04;8.17;;;7.37;;
17488;SDS011;8861;52.644;4.734;2023-09-07T00:29:33;8.53;;;7.33;;
17488;SDS011;8861;52.644;4.734;2023-09-07T00:32:01;8.13;;;7.33;;
17488;SDS011;8861;52.644;4.734;2023-09-07T00:34:28;8.73;;;7.83;;
17488;SDS011;8861;52.644;4.734;2023-09-07T00:36:55;8.37;;;7.57;;
17488;SDS011;8861;52.644;4.734;2023-09-07T00:39:22;8.87;;;7.97;;
17488;SDS011;8861;52.644;4.734;2023-09-07T00:41:49;8.97;;;8.03;;
17488;SDS011;8861;52.644;4.734;2023-09-07T00:44:18;8.97;;;8.07;;
17488;SDS011;8861;52.644;4.734;2023-09-07T00:46:45;9.10;;;8.13;;
17488;SDS011;8861;52.644;4.734;2023-09-07T00:49:12;8.30;;;7.40;;
17488;SDS011;8861;52.644;4.734;2023-09-07T00:51:40;8.67;;;7.77;;
17488;SDS011;8861;52.644;4.734;2023-09-07T00:54:07;8.83;;;7.93;;
17488;SDS011;8861;52.644;4.734;2023-09-07T00:56:34;9.23;;;8.07;;
17488;SDS011;8861;52.644;4.734;2023-09-07T00:59:02;9.03;;;8.13;;
17488;SDS011;8861;52.644;4.734;2023-09-07T01:01:33;9.17;;;8.27;;
17488;SDS011;8861;52.644;4.734;2023-09-07T01:04:01;9.07;;;8.17;;
17488;SDS011;8861;52.644;4.734;2023-09-07T01:06:29;8.90;;;8.00;;
17488;SDS011;8861;52.644;4.734;2023-09-07T01:09:00;9.20;;;7.90;;
17488;SDS011;8861;52.644;4.734;2023-09-07T01:11:35;8.93;;;8.00;;
17488;SDS011;8861;52.644;4.734;2023-09-07T01:14:03;7.93;;;7.13;;
17488;SDS011;8861;52.644;4.734;2023-09-07T01:16:30;8.50;;;7.60;;
17488;SDS011;8861;52.644;4.734;2023-09-07T01:19:00;8.67;;;7.77;;
17488;SDS011;8861;52.644;4.734;2023-09-07T01:21:33;8.00;;;7.20;;
17488;SDS011;8861;52.644;4.734;2023-09-07T01:24:01;8.43;;;7.63;;
17488;SDS011;8861;52.644;4.734;2023-09-07T01:26:30;8.43;;;7.57;;
17488;SDS011;8861;52.644;4.734;2023-09-07T01:28:58;8.20;;;7.10;;
17488;SDS011;8861;52.644;4.734;2023-09-07T01:31:25;7.87;;;7.07;;
17488;SDS011;8861;52.644;4.734;2023-09-07T01:33:52;7.97;;;7.17;;
17488;SDS011;8861;52.644;4.734;2023-09-07T01:36:19;8.57;;;7.47;;
17488;SDS011;8861;52.644;4.734;2023-09-07T01:38:47;8.03;;;7.20;;
17488;SDS011;8861;52.644;4.734;2023-09-07T01:41:14;7.50;;;6.80;;
17488;SDS011;8861;52.644;4.734;2023-09-07T01:43:41;8.63;;;7.73;;
17488;SDS011;8861;52.644;4.734;2023-09-07T01:46:08;8.90;;;8.00;;
17488;SDS011;8861;52.644;4.734;2023-09-07T01:48:35;9.40;;;8.50;;
17488;SDS011;8861;52.644;4.734;2023-09-07T01:51:03;8.50;;;7.63;;
17488;SDS011;8861;52.644;4.734;2023-09-07T01:53:30;10.03;;;8.40;;
17488;SDS011;8861;52.644;4.734;2023-09-07T01:55:59;9.83;;;8.83;;
17488;SDS011;8861;52.644;4.734;2023-09-07T01:58:26;10.40;;;9.30;;
17488;SDS011;8861;52.644;4.734;2023-09-07T02:00:56;8.77;;;7.87;;
17488;SDS011;8861;52.644;4.734;2023-09-07T02:03:23;9.47;;;8.47;;
17488;SDS011;8861;52.644;4.734;2023-09-07T02:05:51;10.13;;;9.03;;
17488;SDS011;8861;52.644;4.734;2023-09-07T02:08:18;10.00;;;9.00;;
17488;SDS011;8861;52.644;4.734;2023-09-07T02:10:45;9.50;;;8.50;;
17488;SDS011;8861;52.644;4.734;2023-09-07T02:13:14;9.97;;;8.97;;
17488;SDS011;8861;52.644;4.734;2023-09-07T02:15:41;10.10;;;9.07;;
17488;SDS011;8861;52.644;4.734;2023-09-07T02:18:08;9.80;;;8.80;;
17488;SDS011;8861;52.644;4.734;2023-09-07T02:20:35;10.07;;;8.97;;
17488;SDS011;8861;52.644;4.734;2023-09-07T02:23:02;9.87;;;8.87;;
17488;SDS011;8861;52.644;4.734;2023-09-07T02:25:29;10.27;;;9.17;;
17488;SDS011;8861;52.644;4.734;2023-09-07T02:27:56;10.40;;;9.17;;
17488;SDS011;8861;52.644;4.734;2023-09-07T02:30:25;10.13;;;9.13;;
17488;SDS011;8861;52.644;4.734;2023-09-07T02:32:52;9.63;;;8.60;;
17488;SDS011;8861;52.644;4.734;2023-09-07T02:35:19;9.50;;;8.50;;
17488;SDS011;8861;52.644;4.734;2023-09-07T02:37:47;10.33;;;9.23;;
17488;SDS011;8861;52.644;4.734;2023-09-07T02:40:14;9.37;;;8.47;;
17488;SDS011;8861;52.644;4.734;2023-09-07T02:42:42;9.40;;;8.47;;
17488;SDS011;8861;52.644;4.734;2023-09-07T02:45:10;9.30;;;8.30;;
17488;SDS011;8861;52.644;4.734;2023-09-07T02:47:38;9.27;;;8.37;;
17488;SDS011;8861;52.644;4.734;2023-09-07T02:50:06;9.47;;;8.30;;
17488;SDS011;8861;52.644;4.734;2023-09-07T02:52:33;9.00;;;8.10;;
17488;SDS011;8861;52.644;4.734;2023-09-07T02:55:00;8.83;;;7.93;;
17488;SDS011;8861;52.644;4.734;2023-09-07T02:57:27;8.43;;;7.57;;
17488;SDS011;8861;52.644;4.734;2023-09-07T02:59:54;8.30;;;7.50;;
17488;SDS011;8861;52.644;4.734;2023-09-07T03:02:21;8.90;;;8.00;;
17488;SDS011;8861;52.644;4.734;2023-09-07T03:04:54;8.90;;;8.00;;
17488;SDS011;8861;52.644;4.734;2023-09-07T03:07:24;8.83;;;7.93;;
17488;SDS011;8861;52.644;4.734;2023-09-07T03:09:51;8.60;;;7.70;;
17488;SDS011;8861;52.644;4.734;2023-09-07T03:12:18;8.83;;;7.93;;
17488;SDS011;8861;52.644;4.734;2023-09-07T03:14:45;8.20;;;7.40;;
17488;SDS011;8861;52.644;4.734;2023-09-07T03:17:13;8.90;;;7.70;;
17488;SDS011;8861;52.644;4.734;2023-09-07T03:19:41;8.30;;;7.50;;
17488;SDS011;8861;52.644;4.734;2023-09-07T03:22:10;8.43;;;7.53;;
17488;SDS011;8861;52.644;4.734;2023-09-07T03:24:37;8.30;;;7.50;;
17488;SDS011;8861;52.644;4.734;2023-09-07T03:27:04;8.17;;;7.37;;
17488;SDS011;8861;52.644;4.734;2023-09-07T03:29:31;7.43;;;6.73;;
17488;SDS011;8861;52.644;4.734;2023-09-07T03:32:00;8.17;;;7.20;;
17488;SDS011;8861;52.644;4.734;2023-09-07T03:34:27;7.60;;;6.80;;
17488;SDS011;8861;52.644;4.734;2023-09-07T03:36:55;8.17;;;7.20;;
17488;SDS011;8861;52.644;4.734;2023-09-07T03:39:24;8.30;;;7.17;;
17488;SDS011;8861;52.644;4.734;2023-09-07T03:41:51;8.07;;;6.70;;
17488;SDS011;8861;52.644;4.734;2023-09-07T03:44:18;8.80;;;7.03;;
17488;SDS011;8861;52.644;4.734;2023-09-07T03:46:45;7.70;;;6.90;;
17488;SDS011;8861;52.644;4.734;2023-09-07T03:49:12;7.53;;;6.73;;
17488;SDS011;8861;52.644;4.734;2023-09-07T03:51:39;7.20;;;6.50;;
17488;SDS011;8861;52.644;4.734;2023-09-07T03:54:06;8.00;;;7.03;;
17488;SDS011;8861;52.644;4.734;2023-09-07T03:56:34;7.80;;;7.00;;
17488;SDS011;8861;52.644;4.734;2023-09-07T03:59:01;7.27;;;6.57;;
17488;SDS011;8861;52.644;4.734;2023-09-07T04:01:28;7.50;;;6.80;;
17488;SDS011;8861;52.644;4.734;2023-09-07T04:03:55;7.37;;;6.67;;
17488;SDS011;8861;52.644;4.734;2023-09-07T04:06:22;7.57;;;6.77;;
17488;SDS011;8861;52.644;4.734;2023-09-07T04:08:50;7.90;;;7.10;;
17488;SDS011;8861;52.644;4.734;2023-09-07T04:11:17;7.50;;;6.80;;
17488;SDS011;8861;52.644;4.734;2023-09-07T04:13:46;9.00;;;7.10;;
17488;SDS011;8861;52.644;4.734;2023-09-07T04:16:13;7.83;;;7.03;;
17488;SDS011;8861;52.644;4.734;2023-09-07T04:18:40;7.80;;;7.00;;
17488;SDS011;8861;52.644;4.734;2023-09-07T04:21:09;7.97;;;7.17;;
17488;SDS011;8861;52.644;4.734;2023-09-07T04:23:36;7.60;;;6.80;;
17488;SDS011;8861;52.644;4.734;2023-09-07T04:26:05;7.57;;;6.87;;
17488;SDS011;8861;52.644;4.734;2023-09-07T04:28:33;7.90;;;7.10;;
17488;SDS011;8861;52.644;4.734;2023-09-07T04:31:02;10.10;;;7.47;;
17488;SDS011;8861;52.644;4.734;2023-09-07T04:33:29;7.93;;;7.13;;
17488;SDS011;8861;52.644;4.734;2023-09-07T04:35:57;7.30;;;6.60;;
17488;SDS011;8861;52.644;4.734;2023-09-07T04:38:32;8.33;;;7.10;;
17488;SDS011;8861;52.644;4.734;2023-09-07T04:41:05;7.60;;;6.80;;
17488;SDS011;8861;52.644;4.734;2023-09-07T04:43:32;7.53;;;6.83;;
17488;SDS011;8861;52.644;4.734;2023-09-07T04:46:00;7.70;;;6.90;;
17488;SDS011;8861;52.644;4.734;2023-09-07T04:48:28;8.00;;;7.20;;
17488;SDS011;8861;52.644;4.734;2023-09-07T04:50:58;8.10;;;7.30;;
17488;SDS011;8861;52.644;4.734;2023-09-07T04:53:26;7.30;;;6.50;;
17488;SDS011;8861;52.644;4.734;2023-09-07T04:55:55;7.97;;;7.17;;
17488;SDS011;8861;52.644;4.734;2023-09-07T04:58:22;7.93;;;7.13;;
17488;SDS011;8861;52.644;4.734;2023-09-07T05:00:49;8.07;;;7.00;;
17488;SDS011;8861;52.644;4.734;2023-09-07T05:03:17;8.13;;;7.33;;
17488;SDS011;8861;52.644;4.734;2023-09-07T05:05:44;9.03;;;8.13;;
17488;SDS011;8861;52.644;4.734;2023-09-07T05:08:16;9.60;;;8.13;;
17488;SDS011;8861;52.644;4.734;2023-09-07T05:10:44;8.60;;;7.53;;
17488;SDS011;8861;52.644;4.734;2023-09-07T05:13:10;9.60;;;8.60;;
17488;SDS011;8861;52.644;4.734;2023-09-07T05:15:46;8.20;;;7.37;;
17488;SDS011;8861;52.644;4.734;2023-09-07T05:18:13;9.37;;;8.20;;
17488;SDS011;8861;52.644;4.734;2023-09-07T05:20:42;8.67;;;7.77;;
17488;SDS011;8861;52.644;4.734;2023-09-07T05:23:10;8.37;;;7.33;;
17488;SDS011;8861;52.644;4.734;2023-09-07T05:25:42;9.13;;;7.90;;
17488;SDS011;8861;52.644;4.734;2023-09-07T05:28:11;8.93;;;7.87;;
17488;SDS011;8861;52.644;4.734;2023-09-07T05:30:39;8.90;;;7.97;;
17488;SDS011;8861;52.644;4.734;2023-09-07T05:33:06;8.77;;;7.87;;
17488;SDS011;8861;52.644;4.734;2023-09-07T05:35:35;8.73;;;7.83;;
17488;SDS011;8861;52.644;4.734;2023-09-07T05:38:04;8.97;;;8.07;;
17488;SDS011;8861;52.644;4.734;2023-09-07T05:40:33;8.97;;;7.97;;
17488;SDS011;8861;52.644;4.734;2023-09-07T05:43:00;8.77;;;7.87;;
17488;SDS011;8861;52.644;4.734;2023-09-07T05:45:29;8.90;;;8.00;;
17488;SDS011;8861;52.644;4.734;2023-09-07T05:47:56;9.53;;;8.27;;
17488;SDS011;8861;52.644;4.734;2023-09-07T05:50:23;8.00;;;7.20;;
17488;SDS011;8861;52.644;4.734;2023-09-07T05:52:51;8.27;;;7.47;;
17488;SDS011;8861;52.644;4.734;2023-09-07T05:55:19;8.07;;;7.03;;
17488;SDS011;8861;52.644;4.734;2023-09-07T05:57:46;8.03;;;7.13;;
17488;SDS011;8861;52.644;4.734;2023-09-07T06:00:15;8.27;;;7.20;;
17488;SDS011;8861;52.644;4.734;2023-09-07T06:02:42;8.70;;;7.60;;
17488;SDS011;8861;52.644;4.734;2023-09-07T06:05:12;7.63;;;6.80;;
17488;SDS011;8861;52.644;4.734;2023-09-07T06:07:43;8.30;;;7.50;;
17488;SDS011;8861;52.644;4.734;2023-09-07T06:10:10;7.93;;;7.13;;
17488;SDS011;8861;52.644;4.734;2023-09-07T06:12:38;7.10;;;6.40;;
17488;SDS011;8861;52.644;4.734;2023-09-07T06:15:07;7.63;;;6.83;;
17488;SDS011;8861;52.644;4.734;2023-09-07T06:17:34;7.40;;;6.60;;
17488;SDS011;8861;52.644;4.734;2023-09-07T06:20:01;6.87;;;6.10;;
17488;SDS011;8861;52.644;4.734;2023-09-07T06:22:30;7.50;;;6.70;;
17488;SDS011;8861;52.644;4.734;2023-09-07T06:24:57;6.80;;;6.10;;
17488;SDS011;8861;52.644;4.734;2023-09-07T06:27:24;6.70;;;6.00;;
17488;SDS011;8861;52.644;4.734;2023-09-07T06:29:52;6.80;;;6.07;;
17488;SDS011;8861;52.644;4.734;2023-09-07T06:32:19;6.93;;;6.23;;
17488;SDS011;8861;52.644;4.734;2023-09-07T06:34:47;7.67;;;6.20;;
17488;SDS011;8861;52.644;4.734;2023-09-07T06:37:14;7.47;;;6.47;;
17488;SDS011;8861;52.644;4.734;2023-09-07T06:39:41;7.37;;;6.57;;
17488;SDS011;8861;52.644;4.734;2023-09-07T06:42:09;7.57;;;6.77;;
17488;SDS011;8861;52.644;4.734;2023-09-07T06:44:36;7.67;;;6.70;;
17488;SDS011;8861;52.644;4.734;2023-09-07T06:47:04;6.93;;;6.23;;
17488;SDS011;8861;52.644;4.734;2023-09-07T06:49:32;8.50;;;7.20;;
17488;SDS011;8861;52.644;4.734;2023-09-07T06:51:59;7.03;;;6.33;;
17488;SDS011;8861;52.644;4.734;2023-09-07T06:54:28;6.60;;;5.90;;
17488;SDS011;8861;52.644;4.734;2023-09-07T06:56:55;8.80;;;7.70;;
17488;SDS011;8861;52.644;4.734;2023-09-07T06:59:22;9.83;;;7.50;;
17488;SDS011;8861;52.644;4.734;2023-09-07T07:01:49;8.80;;;7.83;;
17488;SDS011;8861;52.644;4.734;2023-09-07T07:04:17;8.90;;;8.00;;
17488;SDS011;8861;52.644;4.734;2023-09-07T07:06:44;8.63;;;7.60;;
17488;SDS011;8861;52.644;4.734;2023-09-07T07:09:11;8.53;;;7.63;;
17488;SDS011;8861;52.644;4.734;2023-09-07T07:11:39;8.50;;;7.60;;
17488;SDS011;8861;52.644;4.734;2023-09-07T07:14:08;8.67;;;7.77;;
17488;SDS011;8861;52.644;4.734;2023-09-07T07:16:36;8.17;;;7.33;;
17488;SDS011;8861;52.644;4.734;2023-09-07T07:19:03;8.00;;;6.93;;
17488;SDS011;8861;52.644;4.734;2023-09-07T07:21:32;12.27;;;8.87;;
17488;SDS011;8861;52.644;4.734;2023-09-07T07:23:59;9.67;;;7.97;;
17488;SDS011;8861;52.644;4.734;2023-09-07T07:26:26;8.33;;;7.47;;
17488;SDS011;8861;52.644;4.734;2023-09-07T07:28:53;8.00;;;7.20;;
17488;SDS011;8861;52.644;4.734;2023-09-07T07:31:20;8.53;;;7.63;;
17488;SDS011;8861;52.644;4.734;2023-09-07T07:33:48;8.53;;;7.63;;
17488;SDS011;8861;52.644;4.734;2023-09-07T07:36:15;10.43;;;9.27;;
17488;SDS011;8861;52.644;4.734;2023-09-07T07:38:43;9.60;;;8.60;;
17488;SDS011;8861;52.644;4.734;2023-09-07T07:41:13;9.33;;;8.30;;
17488;SDS011;8861;52.644;4.734;2023-09-07T07:43:40;9.13;;;8.07;;
17488;SDS011;8861;52.644;4.734;2023-09-07T07:46:07;9.83;;;8.73;;
17488;SDS011;8861;52.644;4.734;2023-09-07T07:48:34;10.33;;;8.93;;
17488;SDS011;8861;52.644;4.734;2023-09-07T07:51:02;9.63;;;8.23;;
17488;SDS011;8861;52.644;4.734;2023-09-07T07:53:30;8.57;;;7.63;;
17488;SDS011;8861;52.644;4.734;2023-09-07T07:55:58;8.83;;;7.93;;
17488;SDS011;8861;52.644;4.734;2023-09-07T07:58:25;9.43;;;8.53;;
17488;SDS011;8861;52.644;4.734;2023-09-07T08:00:52;8.90;;;8.00;;
17488;SDS011;8861;52.644;4.734;2023-09-07T08:03:22;8.20;;;7.40;;
17488;SDS011;8861;52.644;4.734;2023-09-07T08:05:50;7.30;;;6.60;;
17488;SDS011;8861;52.644;4.734;2023-09-07T08:08:17;7.97;;;7.17;;
17488;SDS011;8861;52.644;4.734;2023-09-07T08:10:44;8.60;;;7.30;;
17488;SDS011;8861;52.644;4.734;2023-09-07T08:13:13;7.87;;;7.07;;
17488;SDS011;8861;52.644;4.734;2023-09-07T08:15:40;8.00;;;7.20;;
17488;SDS011;8861;52.644;4.734;2023-09-07T08:18:07;9.33;;;7.30;;
17488;SDS011;8861;52.644;4.734;2023-09-07T08:20:35;9.07;;;7.30;;
17488;SDS011;8861;52.644;4.734;2023-09-07T08:23:05;8.77;;;7.73;;
17488;SDS011;8861;52.644;4.734;2023-09-07T08:25:34;7.70;;;6.90;;
17488;SDS011;8861;52.644;4.734;2023-09-07T08:28:01;7.90;;;6.83;;
17488;SDS011;8861;52.644;4.734;2023-09-07T08:30:32;8.30;;;7.40;;
17488;SDS011;8861;52.644;4.734;2023-09-07T08:32:59;8.40;;;7.60;;
17488;SDS011;8861;52.644;4.734;2023-09-07T08:35:27;7.80;;;7.00;;
17488;SDS011;8861;52.644;4.734;2023-09-07T08:37:55;7.77;;;7.03;;
17488;SDS011;8861;52.644;4.734;2023-09-07T08:40:23;7.63;;;6.80;;
17488;SDS011;8861;52.644;4.734;2023-09-07T08:42:52;7.80;;;6.43;;
17488;SDS011;8861;52.644;4.734;2023-09-07T08:45:21;7.73;;;6.93;;
17488;SDS011;8861;52.644;4.734;2023-09-07T08:47:53;7.33;;;6.63;;
17488;SDS011;8861;52.644;4.734;2023-09-07T08:50:22;7.90;;;7.10;;
17488;SDS011;8861;52.644;4.734;2023-09-07T08:52:50;7.30;;;6.60;;
17488;SDS011;8861;52.644;4.734;2023-09-07T08:55:19;8.00;;;6.20;;
17488;SDS011;8861;52.644;4.734;2023-09-07T08:57:47;6.30;;;5.70;;
17488;SDS011;8861;52.644;4.734;2023-09-07T09:00:15;6.07;;;5.47;;
17488;SDS011;8861;52.644;4.734;2023-09-07T09:02:46;5.77;;;5.17;;
17488;SDS011;8861;52.644;4.734;2023-09-07T09:05:14;5.67;;;5.17;;
17488;SDS011;8861;52.644;4.734;2023-09-07T09:07:43;5.80;;;5.30;;
17488;SDS011;8861;52.644;4.734;2023-09-07T09:10:10;5.43;;;4.93;;
17488;SDS011;8861;52.644;4.734;2023-09-07T09:12:44;6.00;;;5.40;;
17488;SDS011;8861;52.644;4.734;2023-09-07T09:15:12;5.23;;;4.73;;
17488;SDS011;8861;52.644;4.734;2023-09-07T09:17:39;5.27;;;4.77;;
17488;SDS011;8861;52.644;4.734;2023-09-07T09:20:20;5.40;;;4.90;;
17488;SDS011;8861;52.644;4.734;2023-09-07T09:22:50;6.73;;;5.40;;
17488;SDS011;8861;52.644;4.734;2023-09-07T09:25:19;6.07;;;5.17;;
17488;SDS011;8861;52.644;4.734;2023-09-07T09:27:46;5.77;;;5.23;;
17488;SDS011;8861;52.644;4.734;2023-09-07T09:30:13;5.80;;;5.30;;
17488;SDS011;8861;52.644;4.734;2023-09-07T09:32:41;5.83;;;5.23;;
17488;SDS011;8861;52.644;4.734;2023-09-07T09:35:09;6.13;;;5.53;;
17488;SDS011;8861;52.644;4.734;2023-09-07T09:37:46;6.10;;;5.50;;
17488;SDS011;8861;52.644;4.734;2023-09-07T09:40:14;6.63;;;5.40;;
17488;SDS011;8861;52.644;4.734;2023-09-07T09:42:42;5.80;;;5.30;;
17488;SDS011;8861;52.644;4.734;2023-09-07T09:45:10;5.87;;;5.30;;
17488;SDS011;8861;52.644;4.734;2023-09-07T09:47:39;8.50;;;5.97;;
17488;SDS011;8861;52.644;4.734;2023-09-07T09:50:07;5.63;;;5.03;;
17488;SDS011;8861;52.644;4.734;2023-09-07T09:52:35;6.03;;;5.43;;
17488;SDS011;8861;52.644;4.734;2023-09-07T09:55:08;5.17;;;4.67;;
17488;SDS011;8861;52.644;4.734;2023-09-07T09:57:38;5.67;;;4.67;;
17488;SDS011;8861;52.644;4.734;2023-09-07T10:00:05;5.50;;;5.00;;
17488;SDS011;8861;52.644;4.734;2023-09-07T10:02:51;5.50;;;5.00;;
17488;SDS011;8861;52.644;4.734;2023-09-07T10:05:28;4.90;;;4.50;;
17488;SDS011;8861;52.644;4.734;2023-09-07T10:08:00;5.03;;;4.50;;
17488;SDS011;8861;52.644;4.734;2023-09-07T10:10:33;6.00;;;4.70;;
17488;SDS011;8861;52.644;4.734;2023-09-07T10:13:02;5.30;;;4.80;;
17488;SDS011;8861;52.644;4.734;2023-09-07T10:15:30;5.37;;;4.87;;
17488;SDS011;8861;52.644;4.734;2023-09-07T10:18:08;5.00;;;4.50;;
17488;SDS011;8861;52.644;4.734;2023-09-07T10:20:49;5.03;;;4.63;;
17488;SDS011;8861;52.644;4.734;2023-09-07T10:23:17;6.20;;;5.43;;
17488;SDS011;8861;52.644;4.734;2023-09-07T10:25:50;5.60;;;5.10;;
17488;SDS011;8861;52.644;4.734;2023-09-07T10:28:18;5.73;;;4.83;;
17488;SDS011;8861;52.644;4.734;2023-09-07T10:30:59;4.80;;;4.30;;
17488;SDS011;8861;52.644;4.734;2023-09-07T10:33:28;5.10;;;4.60;;
17488;SDS011;8861;52.644;4.734;2023-09-07T10:35:55;5.83;;;4.90;;
17488;SDS011;8861;52.644;4.734;2023-09-07T10:38:23;5.53;;;4.90;;
17488;SDS011;8861;52.644;4.734;2023-09-07T10:40:56;6.43;;;5.37;;
17488;SDS011;8861;52.644;4.734;2023-09-07T10:43:26;5.87;;;5.27;;
17488;SDS011;8861;52.644;4.734;2023-09-07T10:45:54;5.77;;;5.20;;
17488;SDS011;8861;52.644;4.734;2023-09-07T10:48:22;6.93;;;5.50;;
17488;SDS011;8861;52.644;4.734;2023-09-07T10:50:49;5.90;;;5.30;;
17488;SDS011;8861;52.644;4.734;2023-09-07T10:53:24;5.90;;;5.40;;
17488;SDS011;8861;52.644;4.734;2023-09-07T10:55:52;7.70;;;5.13;;
17488;SDS011;8861;52.644;4.734;2023-09-07T10:58:26;6.63;;;5.80;;
17488;SDS011;8861;52.644;4.734;2023-09-07T11:00:55;5.83;;;5.20;;
17488;SDS011;8861;52.644;4.734;2023-09-07T11:03:24;6.03;;;5.00;;
17488;SDS011;8861;52.644;4.734;2023-09-07T11:05:52;4.90;;;4.40;;
17488;SDS011;8861;52.644;4.734;2023-09-07T11:08:20;5.50;;;5.00;;
17488;SDS011;8861;52.644;4.734;2023-09-07T11:10:49;5.87;;;4.67;;
17488;SDS011;8861;52.644;4.734;2023-09-07T11:13:17;5.37;;;4.87;;
17488;SDS011;8861;52.644;4.734;2023-09-07T11:15:45;5.37;;;4.87;;
17488;SDS011;8861;52.644;4.734;2023-09-07T11:18:12;4.90;;;4.50;;
17488;SDS011;8861;52.644;4.734;2023-09-07T11:20:39;5.17;;;4.20;;
17488;SDS011;8861;52.644;4.734;2023-09-07T11:23:08;5.77;;;5.20;;
17488;SDS011;8861;52.644;4.734;2023-09-07T11:25:35;5.80;;;5.00;;
17488;SDS011;8861;52.644;4.734;2023-09-07T11:28:03;6.83;;;4.90;;
17488;SDS011;8861;52.644;4.734;2023-09-07T11:30:31;5.17;;;4.67;;
17488;SDS011;8861;52.644;4.734;2023-09-07T11:33:03;5.00;;;4.60;;
17488;SDS011;8861;52.644;4.734;2023-09-07T11:35:32;5.50;;;4.67;;
17488;SDS011;8861;52.644;4.734;2023-09-07T11:37:59;6.67;;;5.10;;
17488;SDS011;8861;52.644;4.734;2023-09-07T11:40:29;7.57;;;5.00;;
17488;SDS011;8861;52.644;4.734;2023-09-07T11:42:56;4.73;;;4.33;;
17488;SDS011;8861;52.644;4.734;2023-09-07T11:45:22;4.90;;;4.47;;
17488;SDS011;8861;52.644;4.734;2023-09-07T11:47:49;5.10;;;4.60;;
17488;SDS011;8861;52.644;4.734;2023-09-07T11:50:17;5.73;;;4.70;;
17488;SDS011;8861;52.644;4.734;2023-09-07T11:52:45;5.33;;;4.83;;
17488;SDS011;8861;52.644;4.734;2023-09-07T11:55:13;5.77;;;4.90;;
17488;SDS011;8861;52.644;4.734;2023-09-07T11:57:41;5.93;;;5.33;;
17488;SDS011;8861;52.644;4.734;2023-09-07T12:00:08;5.37;;;4.87;;
17488;SDS011;8861;52.644;4.734;2023-09-07T12:02:36;5.17;;;4.67;;
17488;SDS011;8861;52.644;4.734;2023-09-07T12:05:04;5.53;;;5.03;;
17488;SDS011;8861;52.644;4.734;2023-09-07T12:07:34;5.70;;;4.60;;
17488;SDS011;8861;52.644;4.734;2023-09-07T12:10:02;4.90;;;4.50;;
17488;SDS011;8861;52.644;4.734;2023-09-07T12:12:29;5.00;;;4.50;;
17488;SDS011;8861;52.644;4.734;2023-09-07T12:14:56;5.67;;;5.03;;
17488;SDS011;8861;52.644;4.734;2023-09-07T12:17:25;5.30;;;4.80;;
17488;SDS011;8861;52.644;4.734;2023-09-07T12:19:52;5.13;;;4.50;;
17488;SDS011;8861;52.644;4.734;2023-09-07T12:22:19;6.97;;;4.60;;
17488;SDS011;8861;52.644;4.734;2023-09-07T12:24:48;5.60;;;4.70;;
17488;SDS011;8861;52.644;4.734;2023-09-07T12:27:16;6.43;;;5.13;;
17488;SDS011;8861;52.644;4.734;2023-09-07T12:29:43;5.20;;;4.70;;
17488;SDS011;8861;52.644;4.734;2023-09-07T12:32:10;4.90;;;4.40;;
17488;SDS011;8861;52.644;4.734;2023-09-07T12:34:37;5.20;;;4.57;;
17488;SDS011;8861;52.644;4.734;2023-09-07T12:37:05;5.23;;;4.73;;
17488;SDS011;8861;52.644;4.734;2023-09-07T12:39:32;4.93;;;4.47;;
17488;SDS011;8861;52.644;4.734;2023-09-07T12:42:00;5.57;;;5.07;;
17488;SDS011;8861;52.644;4.734;2023-09-07T12:44:28;6.93;;;5.27;;
17488;SDS011;8861;52.644;4.734;2023-09-07T12:46:55;5.40;;;4.90;;
17488;SDS011;8861;52.644;4.734;2023-09-07T12:49:22;5.90;;;5.10;;
17488;SDS011;8861;52.644;4.734;2023-09-07T12:51:49;6.03;;;5.43;;
17488;SDS011;8861;52.644;4.734;2023-09-07T12:54:16;5.37;;;4.83;;
17488;SDS011;8861;52.644;4.734;2023-09-07T12:56:43;7.67;;;5.23;;
17488;SDS011;8861;52.644;4.734;2023-09-07T12:59:12;5.80;;;5.10;;
17488;SDS011;8861;52.644;4.734;2023-09-07T13:01:40;6.77;;;5.73;;
17488;SDS011;8861;52.644;4.734;2023-09-07T13:04:07;5.90;;;5.30;;
17488;SDS011;8861;52.644;4.734;2023-09-07T13:06:36;6.10;;;5.50;;
17488;SDS011;8861;52.644;4.734;2023-09-07T13:09:04;5.70;;;5.20;;
17488;SDS011;8861;52.644;4.734;2023-09-07T13:11:31;6.23;;;5.40;;
17488;SDS011;8861;52.644;4.734;2023-09-07T13:13:58;5.80;;;5.20;;
17488;SDS011;8861;52.644;4.734;2023-09-07T13:16:26;6.27;;;5.67;;
17488;SDS011;8861;52.644;4.734;2023-09-07T13:18:53;6.03;;;5.43;;
17488;SDS011;8861;52.644;4.734;2023-09-07T13:21:21;6.20;;;5.43;;
17488;SDS011;8861;52.644;4.734;2023-09-07T13:23:48;7.33;;;5.40;;
17488;SDS011;8861;52.644;4.734;2023-09-07T13:26:15;6.30;;;5.70;;
17488;SDS011;8861;52.644;4.734;2023-09-07T13:28:42;5.90;;;5.30;;
17488;SDS011;8861;52.644;4.734;2023-09-07T13:31:12;6.00;;;5.40;;
17488;SDS011;8861;52.644;4.734;2023-09-07T13:33:40;6.37;;;5.70;;
17488;SDS011;8861;52.644;4.734;2023-09-07T13:36:07;6.00;;;5.40;;
17488;SDS011;8861;52.644;4.734;2023-09-07T13:38:36;6.23;;;5.63;;
17488;SDS011;8861;52.644;4.734;2023-09-07T13:41:03;6.87;;;5.80;;
17488;SDS011;8861;52.644;4.734;2023-09-07T13:43:30;6.40;;;5.80;;
17488;SDS011;8861;52.644;4.734;2023-09-07T13:45:57;7.87;;;5.73;;
17488;SDS011;8861;52.644;4.734;2023-09-07T13:48:24;7.47;;;6.17;;
17488;SDS011;8861;52.644;4.734;2023-09-07T13:50:52;6.30;;;5.70;;
17488;SDS011;8861;52.644;4.734;2023-09-07T13:53:19;6.20;;;5.60;;
17488;SDS011;8861;52.644;4.734;2023-09-07T13:55:47;5.63;;;5.13;;
17488;SDS011;8861;52.644;4.734;2023-09-07T13:58:15;5.93;;;5.40;;
17488;SDS011;8861;52.644;4.734;2023-09-07T14:00:42;5.90;;;5.30;;
17488;SDS011;8861;52.644;4.734;2023-09-07T14:03:09;5.67;;;5.17;;
17488;SDS011;8861;52.644;4.734;2023-09-07T14:05:36;5.67;;;5.17;;
17488;SDS011;8861;52.644;4.734;2023-09-07T14:08:05;5.50;;;5.00;;
17488;SDS011;8861;52.644;4.734;2023-09-07T14:10:32;6.00;;;5.40;;
17488;SDS011;8861;52.644;4.734;2023-09-07T14:12:59;5.83;;;5.23;;
17488;SDS011;8861;52.644;4.734;2023-09-07T14:15:26;6.10;;;5.50;;
17488;SDS011;8861;52.644;4.734;2023-09-07T14:17:54;5.40;;;4.90;;
17488;SDS011;8861;52.644;4.734;2023-09-07T14:20:22;5.33;;;4.80;;
17488;SDS011;8861;52.644;4.734;2023-09-07T14:22:49;6.10;;;5.50;;
17488;SDS011;8861;52.644;4.734;2023-09-07T14:25:17;5.77;;;5.20;;
17488;SDS011;8861;52.644;4.734;2023-09-07T14:27:44;5.23;;;4.83;;
17488;SDS011;8861;52.644;4.734;2023-09-07T14:30:11;5.53;;;5.03;;
17488;SDS011;8861;52.644;4.734;2023-09-07T14:32:38;6.37;;;5.33;;
17488;SDS011;8861;52.644;4.734;2023-09-07T14:35:06;7.17;;;5.30;;
17488;SDS011;8861;52.644;4.734;2023-09-07T14:37:34;6.07;;;5.43;;
17488;SDS011;8861;52.644;4.734;2023-09-07T14:40:01;5.73;;;5.20;;
17488;SDS011;8861;52.644;4.734;2023-09-07T14:42:29;6.00;;;5.30;;
17488;SDS011;8861;52.644;4.734;2023-09-07T14:44:57;5.77;;;5.10;;
17488;SDS011;8861;52.644;4.734;2023-09-07T14:47:26;5.77;;;5.17;;
17488;SDS011;8861;52.644;4.734;2023-09-07T14:49:54;5.80;;;5.20;;
17488;SDS011;8861;52.644;4.734;2023-09-07T14:52:21;5.30;;;4.80;;
17488;SDS011;8861;52.644;4.734;2023-09-07T14:54:49;5.50;;;4.90;;
17488;SDS011;8861;52.644;4.734;2023-09-07T14:57:16;5.60;;;5.10;;
17488;SDS011;8861;52.644;4.734;2023-09-07T14:59:45;5.50;;;5.00;;
17488;SDS011;8861;52.644;4.734;2023-09-07T15:02:12;7.73;;;5.60;;
17488;SDS011;8861;52.644;4.734;2023-09-07T15:04:39;6.73;;;5.47;;